Latest Weather Observations for Kanagulk

IDV60801

Issued at 9:31 pm EST Tuesday 4 August 2015 (issued every 30 minutes, with the page automatically refreshed every 10 minutes)

About weather observations | Map of weather stations | Latest weather observations for VIC | Other Formats
Station Details ID: 079097 Name: KANAGULK Lat: -37.12 Lon: 141.80 Height: 188.8 m
Data from the previous 72 hours. | See also: Recent months at Kanagulk
Date/Time
EST
Temp
°C
App
Temp
°C
Dew
Point
Rel
Hum
%
Delta-T
°C
Wind Press
QNH
hPa
Press
MSL
hPa
Rain
since 9 am
mm
Dir
 
Spd
km/h
Gust
km/h
Spd
kts
Gust
kts
04/09:30pm 7.5 4.0 7.4 99 0.0 NW 15 24 8 13 1017.5 1017.8 0.4
04/09:00pm 7.4 4.3 7.3 99 0.0 WNW 13 24 7 13 1017.8 1018.1 0.4
04/08:30pm 7.2 4.1 7.1 99 0.0 NW 13 20 7 11 1017.9 1018.2 0.2
04/08:00pm 7.4 4.3 7.3 99 0.0 NW 13 20 7 11 1018.5 1018.8 0.0
04/07:30pm 7.7 4.7 7.6 99 0.0 WNW 13 19 7 10 1018.6 1018.9 0.0
04/07:00pm 7.5 4.8 7.4 99 0.0 NW 11 17 6 9 1018.9 1019.1 0.0
04/06:30pm 8.0 4.0 6.8 92 0.6 W 17 30 9 16 1019.2 1019.4 0.0
04/06:00pm 9.4 6.0 5.9 79 1.6 WNW 13 28 7 15 1019.1 1019.3 0.0
04/05:30pm 9.6 6.5 5.6 76 1.8 WNW 11 20 6 11 1019.0 1019.2 0.0
04/05:00pm 10.3 6.6 6.3 76 1.9 WNW 15 24 8 13 1019.0 1019.2 0.0
04/04:30pm 10.2 6.9 6.5 78 1.7 WNW 13 22 7 12 1019.3 1019.5 0.0
04/04:00pm 10.5 7.3 7.0 79 1.7 NW 13 20 7 11 1019.7 1019.9 0.0
04/03:30pm 10.1 6.9 7.0 81 1.5 NW 13 22 7 12 1020.1 1020.3 0.0
04/03:00pm 9.3 5.8 7.4 88 0.9 NW 15 28 8 15 1020.4 1020.6 0.0
04/02:30pm 8.5 5.4 7.3 92 0.6 NW 13 24 7 13 1020.8 1021.1 0.0
04/02:00pm 9.6 6.1 5.6 76 1.8 W 13 22 7 12 1021.1 1021.4 0.0
04/01:30pm 9.3 5.5 5.7 78 1.7 WNW 15 28 8 15 1021.5 1021.8 0.0
04/01:00pm 9.3 5.5 6.0 80 1.5 WNW 15 20 8 11 1022.0 1022.3 0.0
04/12:30pm 9.4 5.2 5.9 79 1.6 WNW 17 26 9 14 1022.6 1022.9 0.0
04/12:00pm 8.5 5.5 6.1 85 1.1 WNW 11 17 6 9 1023.4 1023.7 0.0
04/11:30am 8.5 5.6 6.5 87 0.9 WNW 11 19 6 10 1023.8 1024.1 0.0
04/11:00am 7.4 4.5 6.5 94 0.4 WNW 11 17 6 9 1024.1 1024.4 0.0
04/10:30am 6.9 4.5 6.8 99 0.0 WNW 9 17 5 9 1024.1 1024.4 0.0
04/10:00am 5.8 2.0 5.7 99 0.0 NW 15 20 8 11 1024.4 1024.6 0.0
04/09:30am 5.1 1.9 5.0 99 0.0 NW 11 19 6 10 1024.5 1024.7 0.0
04/09:00am 4.0 1.5 3.9 99 0.0 NW 6 9 3 5 1024.5 1024.7 0.4
04/08:30am 3.6 1.1 3.5 99 0.0 NW 6 9 3 5 1024.6 1024.8 0.4
04/08:00am 3.2 0.4 3.1 99 0.0 NW 7 11 4 6 1024.5 1024.7 0.4
04/07:30am 2.2 -0.2 2.1 99 0.0 NW 4 7 2 4 1024.7 1024.9 0.4
04/07:00am 1.9 0.2 1.8 99 0.0 CALM 0 0 0 0 1024.5 1024.7 0.4
04/06:30am 1.2 -0.6 1.1 99 0.0 CALM 0 6 0 3 1024.5 1024.7 0.4
04/06:00am 0.9 -1.0 0.8 99 0.0 CALM 0 0 0 0 1024.5 1024.7 0.4
04/05:30am 0.7 -1.2 0.6 99 0.0 CALM 0 0 0 0 1024.3 1024.5 0.4
04/05:00am 0.8 -1.1 0.7 99 0.0 CALM 0 0 0 0 1024.1 1024.4 0.4
04/04:30am 1.7 0.0 1.6 99 0.0 CALM 0 0 0 0 1024.1 1024.4 0.4
04/04:00am 1.6 -0.2 1.5 99 0.0 CALM 0 0 0 0 1024.4 1024.6 0.4
04/03:30am 1.6 -0.2 1.5 99 0.0 CALM 0 0 0 0 1024.4 1024.6 0.4
04/03:00am 1.3 -1.3 1.2 99 0.0 WNW 4 7 2 4 1024.5 1024.7 0.4
04/02:30am -0.6 -2.7 -0.7 99 0.0 CALM 0 0 0 0 1024.7 1024.9 0.4
04/02:00am -0.7 -2.8 -0.8 99 0.0 CALM 0 0 0 0 1024.7 1024.9 0.4
04/01:30am 0.4 -1.5 0.3 99 0.0 CALM 0 0 0 0 1024.7 1024.9 0.4
04/01:00am 0.7 -1.2 0.6 99 0.0 CALM 0 0 0 0 1024.9 1025.1 0.4
04/12:30am 1.2 -0.6 1.1 99 0.0 CALM 0 0 0 0 1024.9 1025.1 0.4
04/12:00am 1.8 -1.1 1.7 99 0.0 WNW 6 7 3 4 1024.8 1025.0 0.4
 
Date/Time
EST
Temp
°C
App
Temp
°C
Dew
Point
Rel
Hum
%
Delta-T
°C
Wind Press
QNH
hPa
Press
MSL
hPa
Rain
since 9 am
mm
Dir
 
Spd
km/h
Gust
km/h
Spd
kts
Gust
kts
03/11:30pm 1.6 -0.2 1.2 97 0.2 CALM 0 0 0 0 1024.6 1024.8 0.4
03/11:00pm 2.6 0.9 1.9 95 0.3 CALM 0 0 0 0 1024.8 1025.0 0.4
03/10:30pm 2.8 0.7 1.9 94 0.4 W 2 6 1 3 1024.9 1025.1 0.4
03/10:00pm 2.3 -0.8 1.1 92 0.5 SW 7 11 4 6 1025.1 1025.4 0.4
03/09:30pm 2.9 0.4 1.6 91 0.5 W 4 6 2 3 1025.0 1025.2 0.4
03/09:00pm 2.8 0.6 1.0 88 0.7 SW 2 6 1 3 1025.1 1025.4 0.4
03/08:30pm 3.4 0.4 1.0 84 0.9 SW 6 7 3 4 1025.1 1025.4 0.4
03/08:00pm 4.0 1.1 1.4 83 1.0 SW 6 9 3 5 1025.0 1025.2 0.4
03/07:30pm 3.6 1.3 0.3 79 1.3 SSW 2 7 1 4 1024.7 1024.9 0.4
03/07:00pm 4.5 1.8 0.1 73 1.7 SSW 4 7 2 4 1024.4 1024.6 0.4
03/06:30pm 5.4 1.4 0.6 71 1.9 SSW 11 15 6 8 1023.9 1024.2 0.4
03/06:00pm 5.6 2.0 0.6 70 2.0 SW 9 11 5 6 1023.5 1023.8 0.4
03/05:30pm 6.5 3.0 1.0 68 2.2 SW 9 13 5 7 1023.2 1023.5 0.4
03/05:00pm 7.1 4.1 1.8 69 2.2 SW 7 11 4 6 1023.0 1023.3 0.4
03/04:30pm 7.5 2.9 1.6 66 2.4 SW 15 22 8 12 1022.8 1023.1 0.4
03/04:00pm 8.7 4.1 1.6 61 2.9 SSW 15 22 8 12 1022.5 1022.8 0.4
03/03:30pm 9.2 5.2 3.0 65 2.7 SW 13 20 7 11 1022.2 1022.5 0.4
03/03:00pm 9.2 3.9 3.2 66 2.6 SSW 20 28 11 15 1021.9 1022.2 0.4
03/02:30pm 9.4 4.1 2.0 60 3.1 SW 19 28 10 15 1021.6 1021.9 0.4
03/02:00pm 9.1 4.2 2.2 62 2.9 SSW 17 26 9 14 1021.7 1022.0 0.4
03/01:30pm 8.3 4.9 5.9 85 1.1 SW 13 20 7 11 1021.8 1022.1 0.4
03/01:00pm 7.6 2.6 3.6 76 1.7 SSW 19 28 10 15 1021.9 1022.2 0.0
03/12:30pm 7.8 3.2 3.5 74 1.9 SW 17 32 9 17 1021.8 1022.1 0.0
03/12:00pm 8.8 3.5 3.0 67 2.5 SW 20 30 11 16 1021.8 1022.1 0.0
03/11:30am 8.3 3.1 3.4 71 2.1 SW 20 30 11 16 1021.7 1022.0 0.0
03/11:00am 8.1 3.1 3.6 73 1.9 SSW 19 30 10 16 1021.7 1022.0 0.0
03/10:30am 7.8 2.7 4.0 77 1.7 SW 20 30 11 16 1021.3 1021.6 0.0
03/10:00am 7.4 2.6 4.4 81 1.3 SW 19 26 10 14 1020.9 1021.2 0.0
03/09:30am 7.2 2.7 4.2 81 1.3 SW 17 28 9 15 1020.5 1020.7 0.0
03/09:00am 6.6 2.4 3.9 83 1.2 SW 15 26 8 14 1020.0 1020.2 0.6
03/08:30am 6.3 2.2 4.3 87 0.9 SW 15 24 8 13 1019.6 1019.8 0.6
03/08:00am 5.6 1.8 4.1 90 0.6 SW 13 24 7 13 1019.0 1019.2 0.6
03/07:30am 6.1 1.7 4.9 92 0.5 SW 17 26 9 14 1018.4 1018.7 0.6
03/07:00am 6.4 2.6 5.7 95 0.3 SW 15 24 8 13 1017.8 1018.1 0.6
03/06:30am 6.7 2.7 6.6 99 0.0 WSW 17 26 9 14 1017.4 1017.7 0.6
03/06:00am 6.3 4.1 6.0 98 0.1 W 7 11 4 6 1016.9 1017.2 0.6
03/05:30am 6.5 3.5 5.8 95 0.3 WSW 11 17 6 9 1016.4 1016.7 0.6
03/05:00am 6.9 3.6 6.2 95 0.3 WSW 13 22 7 12 1016.1 1016.3 0.6
03/04:30am 7.4 2.9 6.8 96 0.3 WSW 20 35 11 19 1015.9 1016.1 0.4
03/04:00am 7.6 3.6 6.7 94 0.4 WSW 17 28 9 15 1015.5 1015.7 0.4
03/03:30am 7.8 4.5 6.4 91 0.6 W 13 20 7 11 1015.5 1015.7 0.4
03/03:00am 7.7 3.6 6.2 90 0.7 W 17 30 9 16 1015.4 1015.6 0.4
03/02:30am 7.8 4.0 5.9 88 0.9 W 15 30 8 16 1015.4 1015.6 0.4
03/02:00am 7.7 4.2 5.5 86 1.0 W 13 22 7 12 1015.5 1015.7 0.4
03/01:30am 7.6 3.8 5.6 87 0.9 W 15 28 8 15 1015.2 1015.4 0.4
03/01:00am 7.8 4.1 6.1 89 0.8 W 15 24 8 13 1015.2 1015.4 0.4
03/12:30am 7.7 3.6 6.2 90 0.7 W 17 32 9 17 1015.1 1015.3 0.4
03/12:00am 7.8 3.3 6.3 90 0.7 WNW 19 32 10 17 1015.3 1015.5 0.4
 
Date/Time
EST
Temp
°C
App
Temp
°C
Dew
Point
Rel
Hum
%
Delta-T
°C
Wind Press
QNH
hPa
Press
MSL
hPa
Rain
since 9 am
mm
Dir
 
Spd
km/h
Gust
km/h
Spd
kts
Gust
kts
02/11:30pm 8.0 4.3 6.1 88 0.9 WNW 15 30 8 16 1015.2 1015.4 0.4
02/11:00pm 8.1 3.9 5.7 85 1.1 W 17 33 9 18 1015.2 1015.4 0.4
02/10:30pm 8.3 4.5 5.6 83 1.2 WNW 15 24 8 13 1015.4 1015.6 0.4
02/10:00pm 8.0 3.8 5.6 85 1.1 W 17 33 9 18 1015.0 1015.2 0.4
02/09:30pm 8.0 4.3 6.3 89 0.8 WNW 15 30 8 16 1015.2 1015.4 0.4
02/09:00pm 8.0 3.3 6.0 87 0.9 W 20 33 11 18 1014.9 1015.1 0.4
02/08:30pm 8.3 3.5 5.8 84 1.1 W 20 33 11 18 1014.9 1015.1 0.4
02/08:00pm 8.3 4.4 5.4 82 1.3 WNW 15 26 8 14 1014.5 1014.7 0.4
02/07:30pm 8.0 4.2 5.8 86 1.0 W 15 26 8 14 1014.7 1014.9 0.4
02/07:00pm 8.3 4.2 6.1 86 1.0 W 17 26 9 14 1014.5 1014.7 0.4
02/06:30pm 8.7 4.3 6.5 86 1.0 W 19 30 10 16 1014.3 1014.5 0.4
02/06:00pm 9.2 5.2 6.6 84 1.2 W 17 35 9 19 1013.9 1014.1 0.4
02/05:30pm 9.9 6.5 7.7 86 1.1 W 15 26 8 14 1013.2 1013.4 0.4
02/05:00pm 10.1 6.0 8.0 87 1.0 W 19 35 10 19 1012.8 1013.1 0.4
02/04:30pm 10.0 5.9 8.6 91 0.7 W 20 43 11 23 1012.7 1013.0 0.4
02/04:00pm 9.9 5.5 9.1 95 0.4 W 22 37 12 20 1012.8 1013.1 0.4
02/03:30pm 11.4 6.1 6.9 74 2.2 WNW 24 46 13 25 1012.3 1012.6 0.2
02/03:00pm 12.2 7.8 6.5 68 2.7 WNW 19 30 10 16 1011.9 1012.2 0.2
02/02:30pm 12.9 6.6 5.6 61 3.5 WNW 28 48 15 26 1011.7 1012.0 0.2
02/02:28pm 12.8 6.5 5.7 62 3.4 W 28 48 15 26 1011.7 1012.0 0.2
02/02:00pm 12.1 7.6 7.0 71 2.5 WNW 20 33 11 18 1012.1 1012.4 0.2
02/01:36pm 12.2 6.1 6.7 69 2.6 W 28 48 15 26 1012.4 1012.7 0.2
02/01:30pm 11.7 5.9 6.2 69 2.6 WNW 26 48 14 26 1012.4 1012.7 0.2
02/01:28pm 11.6 5.4 6.1 69 2.6 W 28 54 15 29 1012.4 1012.7 0.2
02/01:00pm 11.3 7.4 9.4 88 1.0 WNW 20 33 11 18 1012.8 1013.1 0.2
02/12:30pm 11.1 6.1 6.6 74 2.1 WNW 22 39 12 21 1013.3 1013.5 0.2
02/12:00pm 10.6 6.3 7.1 79 1.7 WNW 19 33 10 18 1013.9 1014.1 0.2
02/11:30am 10.4 5.9 7.1 80 1.6 WNW 20 35 11 19 1014.2 1014.4 0.0
02/11:00am 9.8 5.9 7.2 84 1.2 WNW 17 33 9 18 1014.4 1014.6 0.0
02/10:30am 9.1 5.3 7.4 89 0.8 WNW 17 33 9 18 1014.6 1014.8 0.0
02/10:00am 8.3 4.5 7.7 96 0.3 NW 17 28 9 15 1014.6 1014.8 0.0
02/09:30am 7.1 3.2 7.0 99 0.0 NW 17 24 9 13 1014.9 1015.1 0.0
02/09:00am 6.0 2.6 5.9 99 0.0 NW 13 20 7 11 1014.8 1015.0 0.0
02/08:30am 5.1 1.5 5.0 99 0.0 NW 13 20 7 11 1014.8 1015.0 0.0
02/08:00am 4.5 1.2 4.4 99 0.0 NW 11 17 6 9 1014.6 1014.8 0.0
02/07:30am 4.2 0.8 4.1 99 0.0 NNW 11 17 6 9 1014.4 1014.6 0.0
02/07:00am 4.4 1.4 4.3 99 0.0 NW 9 13 5 7 1014.5 1014.7 0.0
02/06:30am 4.7 1.8 4.6 99 0.0 NW 9 13 5 7 1014.3 1014.5 0.0
02/06:00am 4.8 1.5 4.4 97 0.2 NW 11 15 6 8 1014.3 1014.5 0.0
02/05:30am 4.9 1.5 4.0 94 0.4 NW 11 17 6 9 1014.6 1014.8 0.0
02/05:00am 4.7 1.5 3.2 90 0.6 NNW 9 13 5 7 1014.7 1014.9 0.0
02/04:30am 5.3 2.7 3.3 87 0.8 NNW 6 11 3 6 1014.7 1014.9 0.0
02/04:00am 5.7 3.0 3.5 86 0.9 NW 7 11 4 6 1014.9 1015.1 0.0
02/03:30am 6.0 3.5 3.5 84 1.1 NW 6 11 3 6 1015.0 1015.2 0.0
02/03:00am 6.1 3.6 3.9 86 0.9 NW 6 9 3 5 1015.5 1015.7 0.0
02/02:30am 6.0 3.0 4.0 87 0.9 NW 9 11 5 6 1015.5 1015.7 0.0
02/02:00am 5.7 2.9 3.4 85 1.0 NW 7 9 4 5 1015.5 1015.7 0.0
02/01:30am 6.0 3.3 3.7 85 1.0 NW 7 11 4 6 1015.7 1015.9 0.0
02/01:00am 6.0 3.3 3.7 85 1.0 NW 7 11 4 6 1016.0 1016.2 0.0
02/12:30am 5.9 3.4 3.6 85 1.0 NW 6 11 3 6 1016.2 1016.5 0.0
02/12:00am 5.7 3.1 3.4 85 1.0 NW 6 9 3 5 1016.3 1016.6 0.0
 
Date/Time
EST
Temp
°C
App
Temp
°C
Dew
Point
Rel
Hum
%
Delta-T
°C
Wind Press
QNH
hPa
Press
MSL
hPa
Rain
since 9 am
mm
Dir
 
Spd
km/h
Gust
km/h
Spd
kts
Gust
kts
01/11:30pm 5.8 3.2 3.3 84 1.1 NW 6 7 3 4 1016.4 1016.7 0.0
01/11:00pm 5.9 3.3 3.1 82 1.2 NW 6 7 3 4 1016.7 1017.0 0.0
01/10:30pm 6.2 3.6 3.4 82 1.2 NW 6 11 3 6 1016.9 1017.2 0.0
01/10:00pm 6.0 3.5 3.7 85 1.0 NW 6 9 3 5 1016.8 1017.1 0.0

Other Formats:

Comma delimited format used in spreadsheet applications
http://www.bom.gov.au/fwo/IDV60801/IDV60801.95827.axf

JavaScript Object Notation format (JSON) in row-major order
http://www.bom.gov.au/fwo/IDV60801/IDV60801.95827.json